createdAt,value
2022-12-06T00:01:44.695Z,3.78
2022-12-06T00:04:15.195Z,4.65
2022-12-06T00:06:48.594Z,5.85
2022-12-06T00:09:25.119Z,6.22
2022-12-06T00:11:53.019Z,6.45
2022-12-06T00:14:20.724Z,6.03
2022-12-06T00:16:48.840Z,5.05
2022-12-06T00:19:18.516Z,4.57
2022-12-06T00:21:47.546Z,4.13
2022-12-06T00:24:20.714Z,6.20
2022-12-06T00:26:49.620Z,4.70
2022-12-06T00:29:20.121Z,5.07
2022-12-06T00:31:47.933Z,5.22
2022-12-06T00:34:15.598Z,4.53
2022-12-06T00:36:44.104Z,4.82
2022-12-06T00:39:14.386Z,4.50
2022-12-06T00:41:42.327Z,3.83
2022-12-06T00:44:10.211Z,5.32
2022-12-06T00:46:40.056Z,4.88
2022-12-06T00:49:08.973Z,5.65
2022-12-06T00:51:37.892Z,3.95
2022-12-06T00:54:07.202Z,4.43
2022-12-06T00:56:37.924Z,4.53
2022-12-06T00:59:06.185Z,4.60
2022-12-06T01:01:36.586Z,5.68
2022-12-06T01:04:06.472Z,5.45
2022-12-06T01:06:36.675Z,3.97
2022-12-06T01:09:11.747Z,3.42
2022-12-06T01:11:39.439Z,4.35
2022-12-06T01:14:07.174Z,4.18
2022-12-06T01:16:35.404Z,4.97
2022-12-06T01:19:05.817Z,4.57
2022-12-06T01:21:34.046Z,4.97
2022-12-06T01:24:01.551Z,4.20
2022-12-06T01:26:35.220Z,4.20
2022-12-06T01:29:04.438Z,4.63
2022-12-06T01:31:37.754Z,5.00
2022-12-06T01:34:08.345Z,3.67
2022-12-06T01:36:35.915Z,4.10
2022-12-06T01:39:07.159Z,4.75
2022-12-06T01:41:34.889Z,6.13
2022-12-06T01:44:02.674Z,4.18
2022-12-06T01:46:44.503Z,5.50
2022-12-06T01:49:12.395Z,4.82
2022-12-06T01:52:01.895Z,3.72
2022-12-06T01:54:30.234Z,5.82
2022-12-06T01:56:58.482Z,4.50
2022-12-06T01:59:27.266Z,4.57
2022-12-06T02:01:55.425Z,3.70
2022-12-06T02:04:23.753Z,3.65
2022-12-06T02:06:53.058Z,5.18
2022-12-06T02:09:21.226Z,6.05
2022-12-06T02:11:48.877Z,5.07
2022-12-06T02:14:23.857Z,4.93
2022-12-06T02:17:10.289Z,6.75
2022-12-06T02:19:43.636Z,4.40
2022-12-06T02:22:31.206Z,4.72
2022-12-06T02:25:13.721Z,3.60
2022-12-06T02:27:47.124Z,5.95
2022-12-06T02:30:21.380Z,4.80
2022-12-06T02:32:57.829Z,4.70
2022-12-06T02:35:46.886Z,5.63
2022-12-06T02:38:36.706Z,4.03
2022-12-06T02:41:20.834Z,3.10
2022-12-06T02:43:55.849Z,3.85
2022-12-06T02:46:25.589Z,3.90
2022-12-06T02:48:54.640Z,5.63
2022-12-06T02:51:23.123Z,5.47
2022-12-06T02:53:53.381Z,4.55
2022-12-06T02:56:21.512Z,8.07
2022-12-06T02:58:49.047Z,5.72
2022-12-06T03:01:21.269Z,5.10
2022-12-06T03:04:00.252Z,4.47
2022-12-06T03:06:49.515Z,5.35
2022-12-06T03:09:26.087Z,4.85
2022-12-06T03:12:05.033Z,4.68
2022-12-06T03:14:51.196Z,5.63
2022-12-06T03:17:24.520Z,4.60
2022-12-06T03:20:07.652Z,3.85
2022-12-06T03:22:40.219Z,4.97
2022-12-06T03:25:09.856Z,4.97
2022-12-06T03:27:38.782Z,5.75
2022-12-06T03:30:11.715Z,6.05
2022-12-06T03:32:43.888Z,6.88
2022-12-06T03:35:16.095Z,5.63
2022-12-06T03:37:48.201Z,6.78
2022-12-06T03:40:29.251Z,6.57
2022-12-06T03:42:57.490Z,4.70
2022-12-06T03:45:41.648Z,5.95
2022-12-06T03:48:47.297Z,5.53
2022-12-06T03:51:21.126Z,4.75
2022-12-06T03:53:54.091Z,7.90
2022-12-06T03:56:23.861Z,5.47
2022-12-06T03:58:51.448Z,6.22
2022-12-06T04:01:19.151Z,4.43
2022-12-06T04:03:47.201Z,5.80
2022-12-06T04:06:15.081Z,5.78
2022-12-06T04:08:42.630Z,6.10
2022-12-06T04:11:10.165Z,6.22
2022-12-06T04:13:37.702Z,6.40
2022-12-06T04:16:25.600Z,8.18
2022-12-06T04:18:53.248Z,5.63
2022-12-06T04:21:32.931Z,6.85
2022-12-06T04:24:00.873Z,3.30
2022-12-06T04:26:28.382Z,6.18
2022-12-06T04:29:14.175Z,4.82
2022-12-06T04:32:01.091Z,8.27
2022-12-06T04:34:46.992Z,8.07
2022-12-06T04:37:32.725Z,7.28
2022-12-06T04:40:00.678Z,7.82
2022-12-06T04:42:46.657Z,7.57
2022-12-06T04:45:14.121Z,8.25
2022-12-06T04:47:41.635Z,8.05
2022-12-06T04:50:09.349Z,11.82
2022-12-06T04:52:36.840Z,8.13
2022-12-06T04:55:07.313Z,10.75
2022-12-06T04:57:34.858Z,8.65
2022-12-06T05:00:02.534Z,8.80
2022-12-06T05:02:31.791Z,13.10
2022-12-06T05:04:59.243Z,11.73
2022-12-06T05:07:26.818Z,12.18
2022-12-06T05:09:54.275Z,9.60
2022-12-06T05:12:21.707Z,9.38
2022-12-06T05:14:49.291Z,10.63
2022-12-06T05:17:16.899Z,9.95
2022-12-06T05:19:44.534Z,11.07
2022-12-06T05:22:11.916Z,10.32
2022-12-06T05:24:39.398Z,12.43
2022-12-06T05:27:06.958Z,14.02
2022-12-06T05:29:34.420Z,14.05
2022-12-06T05:32:02.034Z,12.90
2022-12-06T05:34:29.633Z,13.88
2022-12-06T05:36:57.390Z,15.45
2022-12-06T05:39:25.084Z,15.07
2022-12-06T05:41:52.629Z,18.45
2022-12-06T05:44:20.208Z,15.73
2022-12-06T05:46:47.692Z,20.38
2022-12-06T05:49:15.261Z,24.08
2022-12-06T05:51:42.766Z,24.55
2022-12-06T05:54:10.294Z,14.93
2022-12-06T05:56:37.877Z,15.57
2022-12-06T05:59:05.457Z,12.63
2022-12-06T06:01:33.071Z,12.43
2022-12-06T06:04:02.070Z,15.50
2022-12-06T06:06:30.018Z,16.90
2022-12-06T06:08:57.649Z,20.25
2022-12-06T06:11:25.209Z,19.00
2022-12-06T06:13:54.810Z,17.65
2022-12-06T06:16:22.776Z,17.23
2022-12-06T06:18:50.419Z,10.18
2022-12-06T06:21:17.947Z,12.80
2022-12-06T06:23:45.578Z,11.82
2022-12-06T06:26:13.209Z,14.77
2022-12-06T06:28:40.869Z,19.98
2022-12-06T06:31:08.633Z,17.45
2022-12-06T06:33:36.630Z,14.10
2022-12-06T06:36:04.573Z,12.68
2022-12-06T06:38:32.176Z,11.73
2022-12-06T06:41:03.821Z,16.45
2022-12-06T06:43:31.745Z,11.38
2022-12-06T06:46:02.557Z,13.30
2022-12-06T06:48:32.569Z,18.20
2022-12-06T06:51:05.289Z,16.83
2022-12-06T06:53:33.052Z,16.42
2022-12-06T06:56:00.815Z,14.63
2022-12-06T06:58:28.892Z,16.15
2022-12-06T07:00:59.351Z,15.07
2022-12-06T07:03:28.219Z,15.75
2022-12-06T07:05:59.276Z,16.15
2022-12-06T07:08:28.184Z,15.55
2022-12-06T07:10:57.008Z,14.20
2022-12-06T07:13:26.738Z,16.63
2022-12-06T07:15:54.491Z,15.57
2022-12-06T07:18:23.003Z,15.02
2022-12-06T07:21:04.349Z,17.52
2022-12-06T07:23:34.257Z,15.80
2022-12-06T07:26:06.657Z,15.02
2022-12-06T07:28:38.915Z,20.77
2022-12-06T07:31:10.910Z,23.42
2022-12-06T07:33:39.170Z,18.02
2022-12-06T07:36:12.376Z,16.02
2022-12-06T07:41:30.543Z,11.27
2022-12-06T07:44:17.288Z,16.02
2022-12-06T07:46:45.831Z,13.05
2022-12-06T07:49:16.068Z,11.85
2022-12-06T07:51:47.389Z,14.00
2022-12-06T07:54:15.917Z,10.38
2022-12-06T07:56:44.284Z,13.95
2022-12-06T07:59:12.209Z,10.70
2022-12-06T08:01:40.395Z,9.55
2022-12-06T08:04:08.741Z,9.75
2022-12-06T08:06:36.752Z,8.95
2022-12-06T08:09:04.564Z,9.15
2022-12-06T08:11:32.197Z,7.15
2022-12-06T08:13:59.933Z,9.48
2022-12-06T08:16:27.627Z,10.43
2022-12-06T08:18:57.073Z,8.52
2022-12-06T08:21:26.606Z,6.25
2022-12-06T08:23:55.451Z,7.63
2022-12-06T08:26:23.350Z,9.90
2022-12-06T08:28:51.217Z,6.55
2022-12-06T08:31:21.352Z,7.57
2022-12-06T08:33:49.161Z,7.55
2022-12-06T08:36:19.886Z,7.65
2022-12-06T08:38:48.391Z,7.05
2022-12-06T08:41:34.663Z,7.47
2022-12-06T08:44:03.520Z,7.78
2022-12-06T08:46:32.543Z,7.35
2022-12-06T08:49:00.494Z,10.55
2022-12-06T08:51:29.042Z,11.52
2022-12-06T08:53:57.788Z,7.38
2022-12-06T08:56:26.434Z,8.23
2022-12-06T08:58:55.051Z,12.85
2022-12-06T09:01:26.064Z,9.00
2022-12-06T09:03:54.199Z,9.55
2022-12-06T09:06:22.684Z,8.32
2022-12-06T09:08:50.496Z,8.80
2022-12-06T09:11:19.471Z,10.30
2022-12-06T09:13:47.181Z,10.80
2022-12-06T09:16:21.042Z,12.15
2022-12-06T09:21:19.894Z,14.02
2022-12-06T09:23:47.934Z,14.10
2022-12-06T09:26:15.565Z,12.45
2022-12-06T09:28:44.765Z,11.75
2022-12-06T09:31:12.394Z,9.90
2022-12-06T09:33:39.913Z,9.05
2022-12-06T09:36:17.209Z,11.60
2022-12-06T09:38:47.992Z,9.25
2022-12-06T09:41:40.173Z,11.52
2022-12-06T09:44:21.180Z,8.52
2022-12-06T09:47:04.834Z,11.73
2022-12-06T09:50:06.710Z,9.95
2022-12-06T09:53:03.440Z,10.52
2022-12-06T09:55:52.967Z,12.55
2022-12-06T09:58:38.902Z,11.55
2022-12-06T10:01:37.818Z,8.43
2022-12-06T10:04:33.251Z,9.88
2022-12-06T10:07:25.681Z,13.68
2022-12-06T10:09:53.310Z,10.30
2022-12-06T10:12:52.038Z,11.80
2022-12-06T10:15:27.980Z,10.60
2022-12-06T10:18:10.683Z,9.63
2022-12-06T10:21:11.910Z,9.95
2022-12-06T10:24:11.203Z,9.55
2022-12-06T10:26:52.275Z,10.75
2022-12-06T10:29:34.129Z,11.68
2022-12-06T10:32:17.071Z,10.65
2022-12-06T10:35:15.551Z,10.02
2022-12-06T10:38:06.748Z,13.85
2022-12-06T10:41:12.449Z,12.43
2022-12-06T10:43:49.163Z,11.63
2022-12-06T10:47:05.205Z,13.60
2022-12-06T10:50:08.441Z,12.05
2022-12-06T10:52:41.552Z,9.90
2022-12-06T10:55:12.380Z,10.38
2022-12-06T10:58:00.362Z,9.75
2022-12-06T11:00:31.717Z,10.52
2022-12-06T11:03:11.739Z,9.73
2022-12-06T11:05:49.038Z,10.85
2022-12-06T11:08:26.573Z,9.98
2022-12-06T11:10:56.511Z,7.82
2022-12-06T11:13:37.982Z,8.55
2022-12-06T11:16:21.841Z,7.90
2022-12-06T11:18:49.979Z,7.50
2022-12-06T11:21:36.081Z,6.90
2022-12-06T11:24:13.606Z,7.10
2022-12-06T11:26:47.078Z,8.60
2022-12-06T11:29:16.733Z,7.38
2022-12-06T11:31:49.972Z,7.65
2022-12-06T11:34:31.444Z,7.07
2022-12-06T11:37:01.999Z,12.93
2022-12-06T11:39:31.192Z,8.15
2022-12-06T11:42:01.860Z,9.27
2022-12-06T11:44:40.220Z,7.82
2022-12-06T11:47:16.183Z,7.30
2022-12-06T11:49:46.455Z,10.85
2022-12-06T11:52:30.154Z,7.70
2022-12-06T11:55:02.867Z,8.52
2022-12-06T11:57:39.118Z,5.88
2022-12-06T12:00:08.099Z,9.38
2022-12-06T12:02:41.154Z,8.15
2022-12-06T12:05:18.232Z,9.43
2022-12-06T12:07:59.656Z,10.50
2022-12-06T12:10:38.847Z,9.90
2022-12-06T12:13:30.838Z,9.27
2022-12-06T12:16:02.200Z,11.60
2022-12-06T12:18:35.077Z,10.18
2022-12-06T12:21:05.354Z,10.40
2022-12-06T12:23:44.409Z,10.48
2022-12-06T12:26:11.935Z,10.60
2022-12-06T12:28:40.633Z,12.20
2022-12-06T12:31:25.719Z,10.05
2022-12-06T12:34:19.308Z,10.85
2022-12-06T12:36:50.108Z,9.82
2022-12-06T12:39:32.708Z,10.27
2022-12-06T12:42:01.055Z,9.75
2022-12-06T12:44:39.743Z,12.55
2022-12-06T12:47:20.165Z,9.48
2022-12-06T12:50:18.584Z,10.10
2022-12-06T12:52:47.213Z,11.45
2022-12-06T12:55:20.560Z,11.52
2022-12-06T12:57:53.415Z,13.02
2022-12-06T13:00:24.371Z,14.80
2022-12-06T13:02:57.550Z,10.02
2022-12-06T13:05:34.619Z,11.60
2022-12-06T13:08:17.987Z,10.63
2022-12-06T13:10:50.812Z,10.63
2022-12-06T13:13:56.961Z,11.93
2022-12-06T13:16:31.199Z,10.57
2022-12-06T13:18:59.848Z,20.15
2022-12-06T13:21:41.585Z,19.52
2022-12-06T13:24:12.184Z,11.25
2022-12-06T13:26:47.589Z,10.18
2022-12-06T13:30:00.770Z,14.32
2022-12-06T13:32:44.583Z,11.65
2022-12-06T13:35:35.584Z,10.93
2022-12-06T13:38:24.278Z,13.98
2022-12-06T13:40:55.042Z,10.77
2022-12-06T13:43:25.546Z,12.98
2022-12-06T13:46:28.248Z,10.50
2022-12-06T13:49:04.972Z,9.35
2022-12-06T13:51:35.299Z,9.15
2022-12-06T13:54:05.885Z,10.32
2022-12-06T13:56:33.388Z,9.10
2022-12-06T13:59:21.193Z,9.90
2022-12-06T14:01:53.029Z,13.05
2022-12-06T14:09:44.306Z,9.13
2022-12-06T14:12:24.151Z,14.70
2022-12-06T14:14:59.985Z,12.13
2022-12-06T14:20:32.216Z,14.35
2022-12-06T14:23:00.124Z,12.52
2022-12-06T14:25:31.723Z,12.80
2022-12-06T14:28:06.092Z,15.05
2022-12-06T14:30:33.976Z,12.77
2022-12-06T14:33:01.622Z,14.18
2022-12-06T14:35:37.018Z,14.23
2022-12-06T14:38:26.879Z,10.88
2022-12-06T14:41:13.182Z,13.57
2022-12-06T14:43:42.803Z,12.35
2022-12-06T14:46:16.756Z,12.77
2022-12-06T14:49:04.023Z,13.88
2022-12-06T14:51:38.328Z,13.35
2022-12-06T14:54:44.739Z,12.05
2022-12-06T14:57:28.876Z,13.00
2022-12-06T15:00:27.104Z,10.57
2022-12-06T15:03:24.127Z,12.52
2022-12-06T15:06:09.955Z,10.85
2022-12-06T15:08:42.314Z,12.27
2022-12-06T15:11:12.984Z,13.07
2022-12-06T15:13:40.743Z,12.77
2022-12-06T15:16:08.862Z,8.20
2022-12-06T15:18:56.366Z,6.88
2022-12-06T15:21:24.155Z,8.50
2022-12-06T15:23:56.902Z,10.20
2022-12-06T15:26:26.361Z,10.50
2022-12-06T15:28:54.214Z,9.50
2022-12-06T15:31:30.295Z,9.15
2022-12-06T15:33:57.796Z,9.65
2022-12-06T15:36:29.879Z,12.15
2022-12-06T15:38:58.250Z,12.57
2022-12-06T15:41:28.235Z,11.45
2022-12-06T15:43:57.841Z,9.73
2022-12-06T15:46:28.575Z,11.02
2022-12-06T15:48:57.192Z,9.43
2022-12-06T15:51:29.293Z,9.88
2022-12-06T15:53:59.638Z,10.68
2022-12-06T15:56:30.843Z,9.50
2022-12-06T15:58:58.667Z,10.68
2022-12-06T16:01:43.355Z,10.27
2022-12-06T16:04:21.194Z,11.05
2022-12-06T16:06:49.826Z,9.70
2022-12-06T16:09:19.090Z,9.43
2022-12-06T16:11:47.188Z,13.95
2022-12-06T16:14:15.117Z,9.20
2022-12-06T16:16:43.648Z,10.70
2022-12-06T16:19:11.414Z,12.43
2022-12-06T16:21:55.460Z,7.90
2022-12-06T16:24:23.276Z,10.07
2022-12-06T16:26:50.986Z,9.38
2022-12-06T16:29:21.221Z,9.63
2022-12-06T16:31:51.653Z,9.57
2022-12-06T16:34:20.123Z,8.00
2022-12-06T16:36:57.412Z,10.93
2022-12-06T16:39:25.307Z,10.50
2022-12-06T16:41:52.905Z,8.85
2022-12-06T16:44:20.605Z,8.80
2022-12-06T16:46:48.263Z,9.40
2022-12-06T16:49:45.147Z,8.73
2022-12-06T16:52:07.375Z,9.85
2022-12-06T16:54:34.869Z,10.25
2022-12-06T16:57:02.350Z,8.65
2022-12-06T16:59:30.009Z,7.88
2022-12-06T17:01:59.760Z,9.30
2022-12-06T17:04:27.362Z,8.50
2022-12-06T17:06:54.810Z,9.27
2022-12-06T17:09:22.250Z,8.43
2022-12-06T17:12:06.731Z,8.95
2022-12-06T17:14:36.304Z,6.95
2022-12-06T17:17:04.476Z,10.07
2022-12-06T17:19:33.632Z,8.50
2022-12-06T17:22:02.668Z,8.45
2022-12-06T17:24:30.174Z,6.60
2022-12-06T17:26:59.177Z,8.00
2022-12-06T17:29:27.106Z,7.82
2022-12-06T17:31:55.622Z,9.48
2022-12-06T17:34:26.049Z,9.27
2022-12-06T17:36:54.334Z,7.82
2022-12-06T17:39:22.571Z,8.32
2022-12-06T17:42:08.335Z,9.55
2022-12-06T17:44:36.433Z,7.20
2022-12-06T17:47:04.074Z,5.13
2022-12-06T17:49:31.718Z,10.68
2022-12-06T17:51:59.297Z,6.50
2022-12-06T17:54:26.876Z,7.85
2022-12-06T17:56:58.517Z,10.48
2022-12-06T17:59:30.937Z,8.52
2022-12-06T18:02:20.233Z,7.15
2022-12-06T18:04:48.376Z,7.68
2022-12-06T18:07:17.305Z,10.63
2022-12-06T18:09:45.003Z,7.65
2022-12-06T18:12:14.825Z,8.80
2022-12-06T18:14:42.514Z,9.18
2022-12-06T18:17:10.193Z,13.25
2022-12-06T18:19:37.857Z,8.15
2022-12-06T18:22:05.391Z,10.25
2022-12-06T18:24:36.061Z,7.78
2022-12-06T18:27:07.863Z,7.78
2022-12-06T18:29:35.698Z,7.38
2022-12-06T18:32:04.311Z,5.97
2022-12-06T18:34:32.050Z,10.23
2022-12-06T18:36:59.774Z,9.10
2022-12-06T18:39:28.298Z,8.13
2022-12-06T18:41:56.195Z,8.32
2022-12-06T18:44:24.722Z,7.22
2022-12-06T18:46:52.498Z,8.15
2022-12-06T18:49:20.046Z,7.72
2022-12-06T18:51:47.684Z,7.07
2022-12-06T18:54:15.364Z,5.22
2022-12-06T18:56:43.353Z,6.65
2022-12-06T18:59:12.032Z,5.90
2022-12-06T19:01:41.033Z,6.03
2022-12-06T19:04:13.404Z,6.45
2022-12-06T19:06:41.070Z,7.68
2022-12-06T19:09:11.190Z,8.00
2022-12-06T19:11:42.475Z,7.90
2022-12-06T19:14:11.443Z,6.95
2022-12-06T19:16:47.866Z,8.18
2022-12-06T19:19:24.447Z,6.15
2022-12-06T19:21:53.541Z,10.85
2022-12-06T19:24:24.556Z,7.13
2022-12-06T19:26:54.188Z,7.68
2022-12-06T19:29:22.394Z,7.97
2022-12-06T19:31:50.309Z,6.90
2022-12-06T19:34:24.166Z,8.88
2022-12-06T19:39:21.274Z,5.72
2022-12-06T19:42:07.663Z,10.52
2022-12-06T19:44:35.600Z,8.43
2022-12-06T19:47:04.638Z,8.15
2022-12-06T19:49:32.741Z,9.35
2022-12-06T19:52:01.422Z,7.93
2022-12-06T19:54:31.959Z,7.40
2022-12-06T19:57:01.209Z,6.75
2022-12-06T19:59:31.665Z,8.85
2022-12-06T20:01:59.441Z,9.13
2022-12-06T20:04:32.860Z,8.80
2022-12-06T20:07:01.044Z,9.52
2022-12-06T20:09:30.559Z,9.48
2022-12-06T20:12:03.611Z,9.77
2022-12-06T20:14:39.337Z,9.98
2022-12-06T20:17:16.596Z,11.55
2022-12-06T20:19:46.438Z,16.08
2022-12-06T20:22:16.778Z,10.93
2022-12-06T20:24:45.082Z,14.98
2022-12-06T20:27:13.044Z,16.55
2022-12-06T20:29:40.781Z,16.65
2022-12-06T20:32:08.418Z,15.30
2022-12-06T20:34:36.156Z,20.13
2022-12-06T20:37:06.985Z,21.63
2022-12-06T20:39:38.774Z,22.13
2022-12-06T20:42:07.313Z,18.33
2022-12-06T20:44:36.549Z,15.43
2022-12-06T20:47:05.142Z,19.08
2022-12-06T20:49:32.892Z,15.57
2022-12-06T20:52:03.129Z,16.75
2022-12-06T20:54:31.147Z,12.80
2022-12-06T20:56:59.111Z,11.02
2022-12-06T20:59:27.294Z,13.90
2022-12-06T21:01:55.363Z,8.82
2022-12-06T21:04:23.242Z,10.27
2022-12-06T21:06:50.928Z,12.75
2022-12-06T21:09:19.254Z,9.50
2022-12-06T21:11:47.845Z,7.43
2022-12-06T21:14:17.152Z,6.95
2022-12-06T21:16:44.784Z,8.75
2022-12-06T21:19:16.556Z,6.65
2022-12-06T21:21:48.663Z,7.40
2022-12-06T21:24:20.718Z,8.43
2022-12-06T21:26:49.181Z,7.03
2022-12-06T21:29:20.112Z,8.63
2022-12-06T21:31:49.039Z,7.38
2022-12-06T21:34:17.071Z,7.07
2022-12-06T21:36:45.234Z,7.55
2022-12-06T21:39:13.837Z,6.90
2022-12-06T21:41:42.223Z,7.05
2022-12-06T21:44:09.939Z,6.85
2022-12-06T21:46:37.882Z,6.40
2022-12-06T21:49:05.619Z,7.32
2022-12-06T21:51:33.521Z,6.05
2022-12-06T21:54:01.901Z,6.45
2022-12-06T21:56:31.592Z,7.07
2022-12-06T21:59:02.313Z,7.65
2022-12-06T22:01:31.836Z,6.45
2022-12-06T22:04:03.514Z,9.35
2022-12-06T22:06:32.751Z,6.90
2022-12-06T22:09:06.337Z,7.00
2022-12-06T22:11:34.979Z,9.50
2022-12-06T22:14:05.096Z,7.80
2022-12-06T22:16:33.144Z,6.78
2022-12-06T22:19:00.881Z,6.53
2022-12-06T22:21:31.330Z,8.05
2022-12-06T22:23:59.191Z,5.30
2022-12-06T22:26:28.645Z,6.97
2022-12-06T22:28:58.180Z,5.72
2022-12-06T22:31:28.827Z,5.40
2022-12-06T22:33:58.169Z,5.57
2022-12-06T22:36:26.453Z,6.15
2022-12-06T22:38:56.359Z,4.60
2022-12-06T22:41:24.958Z,6.97
2022-12-06T22:44:02.658Z,6.80
2022-12-06T22:46:32.291Z,6.55
2022-12-06T22:49:01.130Z,6.82
2022-12-06T22:51:34.228Z,6.15
2022-12-06T22:54:05.330Z,7.85
2022-12-06T22:56:33.950Z,6.63
2022-12-06T22:59:02.482Z,5.03
2022-12-06T23:01:32.492Z,8.85
2022-12-06T23:04:04.700Z,8.40
2022-12-06T23:06:33.028Z,9.55
2022-12-06T23:09:00.872Z,8.18
2022-12-06T23:11:33.254Z,9.55
2022-12-06T23:14:03.214Z,10.68
2022-12-06T23:16:31.272Z,10.35
2022-12-06T23:19:01.273Z,10.68
2022-12-06T23:21:38.907Z,11.00
2022-12-06T23:24:10.054Z,11.13
2022-12-06T23:26:40.791Z,12.90
2022-12-06T23:29:09.097Z,8.18
2022-12-06T23:31:40.543Z,11.95
2022-12-06T23:34:13.701Z,9.27
2022-12-06T23:36:41.313Z,10.60
2022-12-06T23:39:09.156Z,8.30
2022-12-06T23:41:37.347Z,9.40
2022-12-06T23:44:07.272Z,7.82
2022-12-06T23:46:38.175Z,11.02
2022-12-06T23:49:07.527Z,7.78
2022-12-06T23:51:37.879Z,8.55
2022-12-06T23:54:07.572Z,11.82
2022-12-06T23:56:37.309Z,7.03
2022-12-06T23:59:06.711Z,9.25
